Time;durP1;ratioP1;P1;durP2;ratioP2;P2;SDS_P1;SDS_P2;PMS_P1;PMS_P2;Temp;Humidity;BMP_temperature;BMP_pressure;BME280_temperature;BME280_humidity;BME280_pressure;Samples;Min_cycle;Max_cycle;Signal;HPM_P1;HPM_P2
2023/09/06 00:09:32;;;;;;;8.98;5.50;;;;;;;24.94;100.00;100487.25;20639607;28;20070;-75
2023/09/06 00:19:56;;;;;;;9.63;5.90;;;;;;;24.94;100.00;100498.06;20675339;28;20050;-74
2023/09/06 00:30:19;;;;;;;9.45;6.25;;;;;;;24.91;100.00;100503.63;20645368;28;20100;-74
2023/09/06 00:40:43;;;;;;;8.68;5.82;;;;;;;24.90;100.00;100501.00;20647010;28;20076;-74
2023/09/06 00:51:08;;;;;;;12.30;6.20;;;;;;;24.90;100.00;100503.69;20656515;28;20057;-74
2023/09/06 01:01:34;;;;;;;10.80;6.22;;;;;;;24.89;100.00;100502.81;20653382;28;20510;-75
2023/09/06 01:11:56;;;;;;;9.80;6.63;;;;;;;24.86;100.00;100499.38;20619983;28;20066;-73
2023/09/06 01:22:28;;;;;;;8.95;5.53;;;;;;;24.84;100.00;100502.13;20640214;28;20092;-76
2023/09/06 01:32:52;;;;;;;10.27;6.03;;;;;;;24.91;100.00;100510.84;20650513;28;20073;-73
2023/09/06 01:43:17;;;;;;;10.48;6.00;;;;;;;24.92;100.00;100504.50;20649363;28;20051;-74
2023/09/06 01:53:41;;;;;;;11.93;6.70;;;;;;;24.99;100.00;100501.44;20651165;28;20066;-73
2023/09/06 02:04:05;;;;;;;11.18;6.22;;;;;;;25.04;100.00;100514.72;20685302;28;20112;-75
2023/09/06 02:14:29;;;;;;;12.48;6.10;;;;;;;25.13;100.00;100519.69;20659880;28;20049;-74
2023/09/06 02:24:52;;;;;;;11.60;6.78;;;;;;;25.05;100.00;100505.66;20656924;28;20050;-74
2023/09/06 02:35:16;;;;;;;13.05;6.95;;;;;;;24.99;100.00;100508.66;20642936;28;20064;-74
2023/09/06 02:45:39;;;;;;;13.32;8.02;;;;;;;24.90;100.00;100522.59;20632548;28;20105;-74
2023/09/06 02:56:04;;;;;;;11.32;7.15;;;;;;;24.75;100.00;100524.16;20622026;28;20391;-75
2023/09/06 03:06:33;;;;;;;11.07;6.97;;;;;;;24.62;100.00;100520.28;20632592;28;20046;-73
2023/09/06 03:17:08;;;;;;;13.02;7.68;;;;;;;24.57;100.00;100523.19;20627610;28;20053;-74
2023/09/06 03:27:31;;;;;;;13.25;8.00;;;;;;;24.50;100.00;100524.41;20638197;28;20054;-75
2023/09/06 03:37:56;;;;;;;13.10;8.38;;;;;;;24.38;100.00;100521.41;20628021;28;20070;-74
2023/09/06 03:48:22;;;;;;;12.50;8.48;;;;;;;24.33;100.00;100523.44;20635776;28;20046;-75
2023/09/06 03:58:47;;;;;;;13.05;7.72;;;;;;;24.22;100.00;100537.38;20644571;28;20042;-75
2023/09/06 04:09:13;;;;;;;18.60;8.10;;;;;;;24.29;100.00;100538.88;20658368;28;20109;-74
2023/09/06 04:19:37;;;;;;;15.45;7.32;;;;;;;24.38;100.00;100545.69;20627432;28;20046;-74
2023/09/06 04:30:00;;;;;;;13.40;7.68;;;;;;;24.43;100.00;100539.13;20647857;28;20042;-74
2023/09/06 04:40:24;;;;;;;11.60;7.05;;;;;;;24.72;100.00;100558.53;20642353;28;20502;-74
2023/09/06 04:50:47;;;;;;;12.20;7.20;;;;;;;25.11;100.00;100553.13;20657455;28;20125;-74
2023/09/06 05:01:14;;;;;;;15.05;6.70;;;;;;;25.87;100.00;100573.72;20645686;28;20130;-75
2023/09/06 05:11:36;;;;;;;9.63;5.60;;;;;;;26.54;100.00;100565.72;20643324;28;20709;-75
2023/09/06 05:22:01;;;;;;;10.88;5.15;;;;;;;27.24;100.00;100556.47;20638706;28;20047;-75
2023/09/06 05:32:24;;;;;;;9.70;5.43;;;;;;;27.95;100.00;100548.72;20651694;28;20081;-75
2023/09/06 05:42:49;;;;;;;12.93;5.97;;;;;;;28.68;100.00;100568.69;20651535;28;20046;-75
2023/09/06 05:53:13;;;;;;;10.60;5.40;;;;;;;29.39;100.00;100582.31;20638515;28;20049;-75
2023/09/06 06:03:39;;;;;;;10.98;5.18;;;;;;;30.15;100.00;100588.94;20643170;28;20537;-74
2023/09/06 06:14:03;;;;;;;13.97;5.80;;;;;;;30.55;87.78;100589.81;20638278;28;20521;-76
2023/09/06 06:24:28;;;;;;;12.35;5.80;;;;;;;31.14;80.62;100612.00;20654743;28;20749;-75
2023/09/06 06:34:54;;;;;;;11.52;6.07;;;;;;;31.22;72.22;100621.38;20645972;28;20046;-75
2023/09/06 06:45:19;;;;;;;11.88;5.60;;;;;;;32.15;71.93;100619.94;20643465;28;20046;-75
2023/09/06 06:55:43;;;;;;;14.63;6.20;;;;;;;32.43;67.93;100621.38;20621087;28;20059;-76
2023/09/06 07:06:07;;;;;;;13.48;5.35;;;;;;;33.12;56.67;100633.25;20612614;28;20136;-76
2023/09/06 07:16:33;;;;;;;13.17;6.60;;;;;;;32.95;56.26;100629.13;20630816;28;20090;-76
2023/09/06 07:26:57;;;;;;;11.88;6.25;;;;;;;33.14;53.78;100634.00;20641248;28;20311;-76
2023/09/06 07:37:20;;;;;;;13.63;5.67;;;;;;;32.87;52.79;100622.53;20647762;28;20082;-75
2023/09/06 07:47:44;;;;;;;14.98;6.47;;;;;;;32.96;54.60;100625.38;20650081;28;20489;-74
2023/09/06 07:58:08;;;;;;;17.92;6.75;;;;;;;33.00;52.34;100618.69;20652136;28;20049;-75
2023/09/06 08:08:32;;;;;;;13.18;6.47;;;;;;;33.20;50.11;100642.63;20641745;28;20063;-74
2023/09/06 08:18:56;;;;;;;11.38;6.15;;;;;;;33.40;52.02;100654.69;20638485;28;20185;-75
2023/09/06 08:29:20;;;;;;;14.00;6.45;;;;;;;33.67;53.31;100640.63;20637337;28;20038;-74
2023/09/06 08:39:43;;;;;;;11.48;5.68;;;;;;;33.44;52.53;100650.69;20637082;28;20418;-74
2023/09/06 08:50:11;;;;;;;15.30;7.88;;;;;;;33.60;51.98;100647.59;20657167;28;20070;-74
2023/09/06 09:00:35;;;;;;;17.90;7.75;;;;;;;33.42;54.74;100643.59;20638276;28;20058;-76
2023/09/06 09:11:13;;;;;;;16.60;8.48;;;;;;;33.76;52.10;100648.09;20659453;28;20118;-74
2023/09/06 09:21:41;;;;;;;12.82;6.65;;;;;;;33.68;54.32;100647.81;20653721;28;20042;-73
2023/09/06 09:32:07;;;;;;;18.63;7.20;;;;;;;33.84;56.20;100659.28;20619427;28;20108;-74
2023/09/06 09:42:31;;;;;;;17.20;7.50;;;;;;;34.75;51.03;100669.84;20623332;28;20243;-75
2023/09/06 09:52:56;;;;;;;14.40;8.10;;;;;;;34.49;50.75;100674.78;20650134;28;20049;-74
2023/09/06 10:03:19;;;;;;;14.27;7.63;;;;;;;34.06;53.28;100665.72;20645369;28;20439;-74
2023/09/06 10:13:45;;;;;;;12.00;6.43;;;;;;;34.04;51.88;100670.44;20625185;28;20112;-74
2023/09/06 10:24:17;;;;;;;14.93;8.20;;;;;;;33.36;60.54;100688.78;20634862;28;20046;-74
2023/09/06 10:34:45;;;;;;;19.63;8.70;;;;;;;33.36;58.81;100672.34;20633532;28;20700;-74
2023/09/06 10:45:15;;;;;;;12.80;7.30;;;;;;;33.01;64.91;100682.50;20632080;28;20065;-73
2023/09/06 10:55:47;;;;;;;17.75;7.88;;;;;;;33.75;63.35;100692.03;20634924;28;20053;-73
2023/09/06 11:06:10;;;;;;;17.95;7.63;;;;;;;33.63;59.07;100677.44;20651976;28;20053;-74
2023/09/06 11:16:35;;;;;;;19.15;8.05;;;;;;;33.16;61.79;100682.13;20658833;28;20057;-74
2023/09/06 11:26:58;;;;;;;14.88;7.43;;;;;;;33.39;61.65;100660.28;20636995;28;20148;-74
2023/09/06 11:37:25;;;;;;;17.52;7.80;;;;;;;33.43;61.28;100667.25;20629516;28;20549;-74
2023/09/06 11:47:48;;;;;;;17.10;8.60;;;;;;;33.60;63.53;100666.75;20611177;28;21008;-73
2023/09/06 11:58:18;;;;;;;21.70;10.27;;;;;;;33.30;63.03;100652.81;20624442;28;20042;-73
2023/09/06 12:08:41;;;;;;;14.98;8.52;;;;;;;33.50;65.75;100660.28;20621938;28;20145;-73
2023/09/06 12:19:11;;;;;;;17.23;8.38;;;;;;;33.34;61.21;100652.47;20635186;28;20089;-72
2023/09/06 12:29:35;;;;;;;18.15;9.30;;;;;;;33.23;58.85;100666.13;20626977;28;20051;-72
2023/09/06 12:39:59;;;;;;;13.85;8.00;;;;;;;33.30;63.09;100645.47;20633329;28;20577;-73
2023/09/06 12:50:22;;;;;;;19.38;8.85;;;;;;;33.38;61.52;100633.91;20642077;28;20086;-73
2023/09/06 13:00:48;;;;;;;20.20;10.57;;;;;;;33.08;58.77;100649.03;20646741;28;20062;-72
2023/09/06 13:11:12;;;;;;;17.98;9.10;;;;;;;32.97;60.50;100646.28;20635310;28;20499;-73
2023/09/06 13:21:37;;;;;;;19.00;8.95;;;;;;;32.92;58.05;100623.91;20641294;28;20141;-72
2023/09/06 13:32:00;;;;;;;19.77;7.75;;;;;;;33.00;55.32;100613.22;20604871;28;20771;-72
2023/09/06 13:42:25;;;;;;;18.45;8.93;;;;;;;32.92;58.50;100623.91;20639076;28;20057;-72
2023/09/06 13:52:48;;;;;;;17.40;7.53;;;;;;;32.83;56.15;100625.50;20628665;28;20046;-72
2023/09/06 14:03:12;;;;;;;17.35;7.97;;;;;;;32.84;58.92;100620.91;20644401;28;20613;-72
2023/09/06 14:13:36;;;;;;;11.98;7.00;;;;;;;32.91;54.88;100622.16;20643988;28;20062;-72
2023/09/06 14:24:01;;;;;;;19.05;7.40;;;;;;;33.15;53.34;100633.84;20646713;28;20616;-72
2023/09/06 14:34:23;;;;;;;13.65;6.80;;;;;;;32.88;51.12;100622.41;20629932;28;20562;-72
2023/09/06 14:44:48;;;;;;;14.38;7.47;;;;;;;32.69;53.77;100619.41;20639161;28;20050;-72
2023/09/06 14:55:11;;;;;;;16.95;7.68;;;;;;;32.26;52.83;100613.63;20648417;28;20050;-71
2023/09/06 15:05:38;;;;;;;18.58;8.15;;;;;;;31.92;59.05;100621.63;20646037;28;20046;-72
2023/09/06 15:16:02;;;;;;;13.75;8.57;;;;;;;31.68;62.63;100607.09;20640542;28;20059;-71
2023/09/06 15:26:27;;;;;;;18.58;8.30;;;;;;;31.46;64.79;100610.50;20624406;28;20054;-71
2023/09/06 15:36:50;;;;;;;21.77;8.90;;;;;;;31.28;66.55;100606.41;20644987;28;20148;-71
2023/09/06 15:47:15;;;;;;;20.40;8.85;;;;;;;31.09;69.74;100598.69;20628665;28;20042;-71
2023/09/06 15:57:38;;;;;;;19.60;8.43;;;;;;;30.80;62.78;100592.56;20641013;28;20058;-71
2023/09/06 16:08:02;;;;;;;18.17;8.00;;;;;;;30.65;70.28;100599.13;20634069;28;20074;-71
2023/09/06 16:18:25;;;;;;;17.08;9.00;;;;;;;30.51;77.81;100621.00;20647164;28;20069;-71
2023/09/06 16:28:49;;;;;;;16.45;7.88;;;;;;;30.33;75.66;100624.94;20658776;28;20502;-71
2023/09/06 16:39:12;;;;;;;19.75;8.52;;;;;;;30.24;79.28;100631.03;20684230;28;20049;-71
2023/09/06 16:49:38;;;;;;;20.00;10.23;;;;;;;30.03;86.77;100645.13;20660873;28;20053;-71
2023/09/06 17:00:00;;;;;;;22.13;12.20;;;;;;;29.85;100.00;100646.34;20656794;28;20528;-71
2023/09/06 17:10:25;;;;;;;21.00;14.07;;;;;;;29.56;100.00;100650.97;20640926;28;20146;-72
2023/09/06 17:20:48;;;;;;;20.70;14.43;;;;;;;29.21;100.00;100679.53;20644573;28;20046;-71
2023/09/06 17:31:12;;;;;;;24.40;14.07;;;;;;;29.15;100.00;100693.47;20634357;28;20057;-71
2023/09/06 17:41:35;;;;;;;22.15;13.65;;;;;;;29.10;100.00;100685.63;20634040;28;20097;-72
2023/09/06 17:51:59;;;;;;;23.95;14.52;;;;;;;29.03;100.00;100688.81;20651655;28;20133;-72
2023/09/06 18:02:23;;;;;;;22.65;13.35;;;;;;;28.89;100.00;100703.25;20648145;28;20689;-72
2023/09/06 18:12:48;;;;;;;26.20;13.98;;;;;;;28.78;100.00;100709.38;20661947;28;20046;-72
2023/09/06 18:23:12;;;;;;;17.17;10.77;;;;;;;28.69;100.00;100718.03;20641597;28;20043;-72
2023/09/06 18:33:38;;;;;;;21.10;13.32;;;;;;;28.62;100.00;100719.34;20647489;28;20138;-72
2023/09/06 18:44:01;;;;;;;19.02;12.15;;;;;;;28.52;100.00;100726.31;20622469;28;20534;-71
2023/09/06 18:54:25;;;;;;;20.65;13.32;;;;;;;28.53;100.00;100720.81;20638080;28;20054;-73
2023/09/06 19:04:49;;;;;;;24.50;10.90;;;;;;;28.41;100.00;100715.22;20629288;28;20049;-72
2023/09/06 19:15:16;;;;;;;16.17;10.10;;;;;;;28.29;100.00;100697.78;20619470;28;20141;-72
2023/09/06 19:25:42;;;;;;;15.50;9.95;;;;;;;28.28;100.00;100681.63;20651414;28;20038;-71
2023/09/06 19:36:07;;;;;;;21.27;10.70;;;;;;;28.25;100.00;100690.81;20645639;28;20062;-71
2023/09/06 19:46:30;;;;;;;20.05;9.85;;;;;;;28.22;100.00;100700.97;20677826;28;20065;-72
2023/09/06 19:56:55;;;;;;;14.80;8.93;;;;;;;28.13;100.00;100692.38;20660420;28;20054;-71
2023/09/06 20:07:18;;;;;;;15.95;9.30;;;;;;;28.10;100.00;100688.94;20672600;28;20501;-71
2023/09/06 20:17:42;;;;;;;22.70;11.60;;;;;;;28.03;100.00;100682.13;20668812;28;20149;-71
2023/09/06 20:28:06;;;;;;;18.80;9.73;;;;;;;27.95;100.00;100666.28;20657881;28;20506;-72
2023/09/06 20:38:30;;;;;;;18.67;9.55;;;;;;;27.82;100.00;100670.69;20674049;28;20570;-71
2023/09/06 20:48:53;;;;;;;20.67;8.80;;;;;;;27.86;100.00;100665.94;20674823;28;20086;-71
2023/09/06 20:59:18;;;;;;;18.85;10.38;;;;;;;27.90;100.00;100668.38;20663657;28;20078;-70
2023/09/06 21:09:41;;;;;;;16.63;10.30;;;;;;;27.92;100.00;100654.72;20676165;28;20266;-71
2023/09/06 21:20:08;;;;;;;16.77;9.45;;;;;;;27.88;100.00;100664.03;20653394;28;20046;-71
2023/09/06 21:30:31;;;;;;;19.33;9.98;;;;;;;27.79;100.00;100664.53;20655020;28;20051;-72
2023/09/06 21:40:57;;;;;;;22.92;10.73;;;;;;;27.74;100.00;100672.94;20654177;28;20043;-71
2023/09/06 21:51:19;;;;;;;16.25;10.27;;;;;;;27.59;100.00;100676.53;20577692;28;20190;-71
2023/09/06 22:01:44;;;;;;;19.10;9.98;;;;;;;27.50;100.00;100658.03;20656751;28;20134;-71
2023/09/06 22:12:25;;;;;;;19.52;10.27;;;;;;;27.36;100.00;100659.69;20650200;28;20077;-71
2023/09/06 22:22:50;;;;;;;14.80;9.30;;;;;;;27.30;100.00;100660.03;20648308;28;20050;-71
2023/09/06 22:33:14;;;;;;;18.55;9.52;;;;;;;27.27;100.00;100652.03;20634276;28;20590;-71
2023/09/06 22:43:39;;;;;;;16.67;9.85;;;;;;;27.21;100.00;100643.38;20652948;28;20137;-71
2023/09/06 22:54:03;;;;;;;18.05;9.40;;;;;;;27.10;100.00;100634.97;20667169;28;20147;-71
2023/09/06 23:04:27;;;;;;;16.65;8.60;;;;;;;27.03;100.00;100631.72;20652303;28;20499;-71
2023/09/06 23:14:53;;;;;;;16.02;8.23;;;;;;;27.07;95.75;100618.84;20648578;28;20052;-71
2023/09/06 23:25:21;;;;;;;16.70;9.05;;;;;;;27.01;92.55;100622.78;20633630;28;20046;-71
2023/09/06 23:35:46;;;;;;;16.40;7.90;;;;;;;26.92;87.93;100607.88;20645537;28;20057;-71
2023/09/06 23:46:11;;;;;;;15.30;7.40;;;;;;;27.04;79.05;100589.22;20636342;28;20073;-71
2023/09/06 23:56:34;;;;;;;14.23;7.50;;;;;;;27.27;70.11;100594.22;20648402;28;20093;-71
